Time;durP1;ratioP1;P1;durP2;ratioP2;P2;SDS_P1;SDS_P2;PMS_P1;PMS_P2;Temp;Humidity;BMP_temperature;BMP_pressure;BME280_temperature;BME280_humidity;BME280_pressure;Samples;Min_cycle;Max_cycle;Signal;HPM_P1;HPM_P2
2022/05/05 00:01:16;;;;;;;5.83;5.43;;;;;;;13.40;100.00;99731.91;5008299;28;20202;-56
2022/05/05 00:03:42;;;;;;;5.70;5.30;;;;;;;13.48;100.00;99736.84;5007942;28;20204;-56
2022/05/05 00:06:09;;;;;;;5.53;5.10;;;;;;;13.60;100.00;99730.31;5009678;28;20297;-55
2022/05/05 00:08:36;;;;;;;5.30;4.90;;;;;;;13.53;100.00;99727.09;5007936;28;20193;-55
2022/05/05 00:16:33;;;;;;;4.73;4.40;;;;;;;13.54;100.00;99736.63;5027372;28;20228;-56
2022/05/05 00:19:01;;;;;;;5.13;4.83;;;;;;;13.47;100.00;99740.34;5047311;28;20197;-56
2022/05/05 00:21:28;;;;;;;5.20;4.80;;;;;;;13.53;100.00;99740.16;5047391;28;20203;-56
2022/05/05 00:23:55;;;;;;;5.40;4.90;;;;;;;13.56;100.00;99736.56;5047207;28;20200;-55
2022/05/05 00:26:22;;;;;;;6.70;5.03;;;;;;;13.59;100.00;99739.06;5025049;28;20217;-56
2022/05/05 00:28:49;;;;;;;5.33;4.87;;;;;;;13.67;100.00;99740.47;5017112;28;20208;-57
2022/05/05 00:31:16;;;;;;;5.33;4.70;;;;;;;13.71;100.00;99738.59;5016167;28;20208;-56
2022/05/05 00:33:45;;;;;;;4.90;4.30;;;;;;;13.70;100.00;99736.88;5021422;28;20201;-56
2022/05/05 00:36:12;;;;;;;5.00;4.60;;;;;;;13.64;100.00;99743.19;5027236;28;20752;-56
2022/05/05 00:38:39;;;;;;;4.77;4.37;;;;;;;13.68;100.00;99734.34;5027204;28;20304;-56
2022/05/05 00:41:06;;;;;;;4.90;4.40;;;;;;;13.74;100.00;99725.44;5027091;28;20201;-57
2022/05/05 00:43:35;;;;;;;4.37;4.07;;;;;;;13.77;100.00;99731.38;5027418;28;20197;-56
2022/05/05 00:46:03;;;;;;;4.43;4.13;;;;;;;13.80;100.00;99733.88;5026901;28;20207;-53
2022/05/05 00:48:30;;;;;;;4.50;4.20;;;;;;;13.78;100.00;99730.47;5027146;28;20193;-53
2022/05/05 00:50:59;;;;;;;4.87;4.10;;;;;;;13.73;100.00;99728.94;5026818;28;20200;-54
2022/05/05 00:53:27;;;;;;;4.30;3.93;;;;;;;13.74;100.00;99728.03;5026945;28;20193;-53
2022/05/05 00:55:57;;;;;;;4.10;3.70;;;;;;;13.67;100.00;99737.84;5026922;28;20614;-53
2022/05/05 00:58:26;;;;;;;4.40;4.10;;;;;;;13.69;100.00;99737.78;5027123;28;20308;-53
2022/05/05 01:00:54;;;;;;;4.30;3.70;;;;;;;13.70;100.00;99737.75;5026787;28;20193;-53
2022/05/05 01:03:21;;;;;;;4.93;3.70;;;;;;;13.70;100.00;99729.91;5026981;28;20204;-53
2022/05/05 01:05:48;;;;;;;5.50;3.73;;;;;;;13.59;100.00;99734.69;5026780;28;20202;-52
2022/05/05 01:08:17;;;;;;;4.20;3.90;;;;;;;13.60;100.00;99733.78;5026821;28;20280;-55
2022/05/05 01:10:43;;;;;;;3.97;3.60;;;;;;;13.66;100.00;99732.69;5026781;28;20227;-53
2022/05/05 01:13:10;;;;;;;4.33;4.03;;;;;;;13.63;100.00;99733.69;5027001;28;20738;-53
2022/05/05 01:15:37;;;;;;;3.40;3.20;;;;;;;13.62;100.00;99742.41;5026945;28;20201;-53
2022/05/05 01:18:05;;;;;;;4.20;3.80;;;;;;;13.61;100.00;99732.88;5026771;28;20234;-53
2022/05/05 01:20:32;;;;;;;4.50;4.10;;;;;;;13.55;100.00;99733.09;5026571;28;20288;-53
2022/05/05 01:23:00;;;;;;;3.80;3.50;;;;;;;13.46;100.00;99730.81;5026446;28;20204;-53
2022/05/05 01:28:15;;;;;;;3.70;3.43;;;;;;;13.15;100.00;99740.69;5030248;28;20197;-53
2022/05/05 01:30:43;;;;;;;4.97;4.47;;;;;;;13.05;100.00;99748.78;5029996;28;20640;-53
2022/05/05 01:33:12;;;;;;;5.53;5.07;;;;;;;13.02;100.00;99748.03;5029965;28;20265;-54
2022/05/05 01:35:40;;;;;;;4.83;4.43;;;;;;;13.00;100.00;99749.84;5030225;28;20683;-54
2022/05/05 01:38:09;;;;;;;4.70;4.20;;;;;;;12.96;100.00;99751.72;5029891;28;20239;-54
2022/05/05 01:40:36;;;;;;;5.47;4.93;;;;;;;12.94;100.00;99756.13;5029925;28;20209;-54
2022/05/05 01:43:04;;;;;;;5.50;4.73;;;;;;;12.92;100.00;99752.72;5029833;28;20201;-54
2022/05/05 01:45:31;;;;;;;4.87;4.57;;;;;;;12.89;100.00;99751.97;5029892;28;20208;-53
2022/05/05 01:47:58;;;;;;;6.97;4.47;;;;;;;12.76;100.00;99741.13;5029646;28;20204;-53
2022/05/05 01:50:26;;;;;;;5.23;4.83;;;;;;;12.77;100.00;99749.78;5030156;28;20197;-53
2022/05/05 01:52:54;;;;;;;5.10;4.80;;;;;;;12.81;100.00;99754.00;5029983;28;20269;-53
2022/05/05 01:55:22;;;;;;;5.97;4.33;;;;;;;12.78;100.00;99752.34;5029729;28;20201;-54
2022/05/05 01:57:49;;;;;;;5.30;4.77;;;;;;;12.79;100.00;99754.03;5029431;28;20231;-54
2022/05/05 02:00:17;;;;;;;4.73;4.33;;;;;;;12.66;100.00;99745.78;5029640;28;20203;-54
2022/05/05 02:02:45;;;;;;;4.30;4.00;;;;;;;12.69;100.00;99760.47;5029622;28;20190;-53
2022/05/05 02:05:12;;;;;;;4.80;4.50;;;;;;;12.73;100.00;99762.94;5029836;28;20201;-53
2022/05/05 02:07:39;;;;;;;5.60;4.50;;;;;;;12.68;100.00;99763.97;5029475;28;20190;-53
2022/05/05 02:10:08;;;;;;;6.13;4.30;;;;;;;12.46;100.00;99726.53;5029584;28;20613;-53
2022/05/05 02:12:38;;;;;;;4.37;4.07;;;;;;;12.65;100.00;99758.84;5029401;28;20286;-54
2022/05/05 02:15:06;;;;;;;5.47;4.90;;;;;;;12.62;100.00;99761.59;5029161;28;20239;-52
2022/05/05 02:17:33;;;;;;;4.60;4.20;;;;;;;12.58;100.00;99767.78;5029212;28;20726;-53
2022/05/05 02:20:01;;;;;;;4.37;4.00;;;;;;;12.55;100.00;99765.28;5029164;28;20194;-53
2022/05/05 02:22:28;;;;;;;4.67;4.37;;;;;;;12.54;100.00;99768.78;5029497;28;20574;-53
2022/05/05 02:24:55;;;;;;;5.17;4.67;;;;;;;12.53;100.00;99777.47;5029184;28;20236;-53
2022/05/05 02:27:22;;;;;;;4.97;4.57;;;;;;;12.48;100.00;99772.44;5028875;28;20208;-53
2022/05/05 02:29:51;;;;;;;4.97;4.60;;;;;;;12.54;100.00;99772.22;5028984;28;20201;-53
2022/05/05 02:32:18;;;;;;;6.47;4.90;;;;;;;12.53;100.00;99780.09;5028921;28;20288;-54
2022/05/05 02:34:46;;;;;;;4.23;3.87;;;;;;;12.53;100.00;99770.53;5029031;28;20586;-55
2022/05/05 02:39:59;;;;;;;4.93;4.63;;;;;;;12.17;100.00;99751.75;5029583;28;20223;-57
2022/05/05 02:42:26;;;;;;;4.83;4.53;;;;;;;12.29;100.00;99779.16;5029272;28;20197;-56
2022/05/05 02:44:54;;;;;;;5.00;4.70;;;;;;;12.25;100.00;99783.59;5028899;28;20596;-55
2022/05/05 02:47:21;;;;;;;4.83;4.53;;;;;;;12.18;100.00;99789.91;5029053;28;20632;-53
2022/05/05 02:49:48;;;;;;;5.40;5.00;;;;;;;12.04;100.00;99786.84;5028805;28;20205;-53
2022/05/05 02:52:15;;;;;;;5.37;5.07;;;;;;;11.97;100.00;99790.53;5028703;28;20204;-53
2022/05/05 02:54:47;;;;;;;5.60;5.20;;;;;;;11.93;100.00;99799.34;5032450;28;20602;-57
2022/05/05 02:57:14;;;;;;;5.40;5.00;;;;;;;11.87;100.00;99792.56;5039206;28;20225;-57
2022/05/05 02:59:41;;;;;;;5.10;4.70;;;;;;;11.91;100.00;99793.31;5035298;28;20312;-53
2022/05/05 03:02:09;;;;;;;5.07;4.67;;;;;;;11.89;100.00;99800.31;5039773;28;20228;-56
2022/05/05 03:04:36;;;;;;;5.40;4.97;;;;;;;11.84;100.00;99799.63;5036987;27;20216;-56
2022/05/05 03:07:04;;;;;;;5.33;4.80;;;;;;;11.84;100.00;99810.00;5032478;28;20236;-53
2022/05/05 03:09:31;;;;;;;5.57;5.07;;;;;;;11.80;100.00;99813.59;5047649;28;20261;-56
2022/05/05 03:11:58;;;;;;;6.70;5.67;;;;;;;11.74;100.00;99809.38;5029837;28;20218;-56
2022/05/05 03:14:25;;;;;;;5.97;5.57;;;;;;;11.63;100.00;99806.22;5012056;28;20619;-57
2022/05/05 03:16:52;;;;;;;5.83;5.20;;;;;;;11.57;100.00;99811.63;5018108;28;20328;-56
2022/05/05 03:19:20;;;;;;;5.57;5.10;;;;;;;11.54;100.00;99820.34;5015097;28;20218;-55
2022/05/05 03:21:47;;;;;;;6.30;5.80;;;;;;;11.47;100.00;99826.63;5014252;28;20222;-56
2022/05/05 03:24:14;;;;;;;5.70;5.20;;;;;;;11.44;100.00;99824.09;5015401;28;20218;-57
2022/05/05 03:26:41;;;;;;;6.20;5.57;;;;;;;11.43;100.00;99819.78;5020245;28;20722;-56
2022/05/05 03:29:08;;;;;;;6.43;5.87;;;;;;;11.45;100.00;99832.75;5028165;28;20200;-56
2022/05/05 03:31:35;;;;;;;6.73;5.43;;;;;;;11.56;100.00;99826.34;5018993;28;20204;-57
2022/05/05 03:34:02;;;;;;;6.10;5.60;;;;;;;11.58;100.00;99824.56;5017018;28;20898;-53
2022/05/05 03:36:30;;;;;;;6.07;5.67;;;;;;;11.64;100.00;99833.94;5016160;28;20198;-53
2022/05/05 03:38:57;;;;;;;5.67;5.17;;;;;;;11.67;100.00;99828.66;5015372;28;20218;-53
2022/05/05 03:41:24;;;;;;;5.97;5.40;;;;;;;11.64;100.00;99832.19;5017348;28;20197;-53
2022/05/05 03:43:52;;;;;;;6.30;5.70;;;;;;;11.63;100.00;99832.22;5017155;28;20374;-53
2022/05/05 03:46:19;;;;;;;5.77;5.37;;;;;;;11.65;100.00;99843.44;5015731;28;20194;-53
2022/05/05 03:48:46;;;;;;;6.10;5.50;;;;;;;11.78;100.00;99830.97;5008699;28;20190;-52
2022/05/05 03:51:13;;;;;;;6.97;5.07;;;;;;;11.92;100.00;99841.84;5009078;28;20692;-53
2022/05/05 03:53:41;;;;;;;5.03;4.63;;;;;;;12.23;100.00;99842.63;5026926;28;20204;-53
2022/05/05 03:56:08;;;;;;;6.33;5.23;;;;;;;13.07;100.00;99848.63;5014478;28;20284;-53
2022/05/05 03:58:35;;;;;;;4.33;3.90;;;;;;;14.03;100.00;99854.78;5026812;28;20601;-53
2022/05/05 04:01:02;;;;;;;4.70;4.30;;;;;;;15.18;100.00;99852.81;5019870;28;20218;-57
2022/05/05 04:03:31;;;;;;;3.77;3.43;;;;;;;16.40;100.00;99857.81;5006789;28;20776;-55
2022/05/05 04:05:59;;;;;;;3.70;3.50;;;;;;;17.54;93.53;99867.91;5011045;28;20223;-59
2022/05/05 04:08:25;;;;;;;5.00;4.10;;;;;;;18.56;88.98;99862.41;5026483;28;20217;-57
2022/05/05 04:10:54;;;;;;;4.30;3.90;;;;;;;19.48;83.61;99863.25;5026876;28;20217;-56
2022/05/05 04:13:22;;;;;;;6.40;3.40;;;;;;;20.23;79.95;99856.88;5020162;28;20214;-57
2022/05/05 04:15:50;;;;;;;3.90;3.67;;;;;;;21.28;75.55;99887.84;5039296;28;20228;-58
2022/05/05 04:18:16;;;;;;;4.28;3.80;;;;;;;22.45;70.79;99887.63;5045255;28;20430;-60
2022/05/05 04:20:44;;;;;;;4.15;3.75;;;;;;;23.41;66.83;99893.75;5046320;28;20216;-59
2022/05/05 04:23:11;;;;;;;3.92;3.70;;;;;;;23.84;64.09;99888.66;5046666;28;20259;-58
2022/05/05 04:25:41;;;;;;;4.25;3.85;;;;;;;24.57;60.61;99904.13;5046157;28;20239;-55
2022/05/05 04:28:10;;;;;;;5.82;3.58;;;;;;;25.21;57.86;99909.50;5025383;28;20248;-53
2022/05/05 04:30:39;;;;;;;4.05;3.80;;;;;;;25.97;54.24;99903.00;5025946;28;20698;-53
2022/05/05 04:33:07;;;;;;;4.88;3.85;;;;;;;26.85;50.58;99904.19;5025960;28;20565;-59
2022/05/05 04:35:35;;;;;;;4.22;3.88;;;;;;;27.68;47.59;99903.63;5026748;28;20226;-60
2022/05/05 04:38:03;;;;;;;4.32;3.92;;;;;;;28.16;45.43;99906.97;5026560;28;20260;-58
2022/05/05 04:40:30;;;;;;;4.10;3.78;;;;;;;28.64;44.29;99905.94;5026550;28;20232;-59
2022/05/05 04:42:57;;;;;;;4.10;3.80;;;;;;;28.95;42.40;99902.94;5027037;28;20288;-58
2022/05/05 04:45:25;;;;;;;7.03;3.65;;;;;;;29.31;41.57;99898.41;5026034;28;20544;-58
2022/05/05 04:47:52;;;;;;;4.93;3.35;;;;;;;29.45;40.45;99905.94;5007601;28;20589;-58
2022/05/05 04:50:19;;;;;;;8.23;4.40;;;;;;;29.75;40.31;99901.94;5007396;28;20206;-58
2022/05/05 04:52:46;;;;;;;5.00;4.05;;;;;;;30.20;39.44;99897.22;5015816;28;20691;-62
2022/05/05 04:55:13;;;;;;;4.68;4.28;;;;;;;30.33;38.44;99902.97;5014841;28;20211;-59
2022/05/05 04:57:40;;;;;;;5.88;4.50;;;;;;;30.33;38.27;99902.97;5015087;28;20645;-58
2022/05/05 05:00:09;;;;;;;13.43;4.35;;;;;;;30.25;38.04;99900.22;5016442;28;20193;-59
2022/05/05 05:02:37;;;;;;;4.53;3.80;;;;;;;29.49;39.65;99902.75;5020361;28;20197;-53
2022/05/05 05:05:05;;;;;;;4.22;3.92;;;;;;;28.87;40.51;99890.34;5018778;28;20186;-54
2022/05/05 05:07:33;;;;;;;5.20;4.10;;;;;;;29.42;39.72;99906.22;5019027;28;20204;-54
2022/05/05 05:10:00;;;;;;;4.70;4.30;;;;;;;29.08;40.22;99916.75;5020082;28;20201;-53
2022/05/05 05:12:27;;;;;;;4.95;3.97;;;;;;;28.53;41.50;99903.47;5019083;28;20194;-55
2022/05/05 05:14:54;;;;;;;6.13;4.20;;;;;;;28.73;41.41;99901.50;5017781;28;20204;-53
2022/05/05 05:17:21;;;;;;;5.78;4.38;;;;;;;29.02;40.85;99896.81;5014918;28;20288;-53
2022/05/05 05:19:49;;;;;;;4.93;4.32;;;;;;;28.79;41.11;99898.25;5010219;28;20228;-54
2022/05/05 05:22:16;;;;;;;4.65;4.40;;;;;;;27.86;42.61;99898.41;5010045;28;20214;-55
2022/05/05 05:24:43;;;;;;;5.05;4.53;;;;;;;27.26;44.51;99905.75;5010151;28;20288;-54
2022/05/05 05:27:10;;;;;;;6.10;4.57;;;;;;;27.52;44.48;99898.84;5018248;28;20206;-55
2022/05/05 05:29:37;;;;;;;5.38;4.90;;;;;;;27.67;43.46;99909.94;5028765;28;20202;-54
2022/05/05 05:32:05;;;;;;;5.18;4.70;;;;;;;27.82;43.82;99901.34;5010449;28;20198;-54
2022/05/05 05:34:32;;;;;;;8.52;4.93;;;;;;;28.04;43.32;99912.66;5010436;28;20204;-54
2022/05/05 05:37:00;;;;;;;5.55;5.13;;;;;;;28.48;41.98;99905.72;5010139;28;20723;-54
2022/05/05 05:39:27;;;;;;;5.40;4.90;;;;;;;28.25;42.65;99915.13;5010156;28;20309;-55
2022/05/05 05:41:54;;;;;;;5.30;4.80;;;;;;;28.63;42.38;99920.28;5010131;28;20198;-56
2022/05/05 05:44:21;;;;;;;6.85;6.03;;;;;;;29.26;40.88;99917.59;5010264;28;20194;-54
2022/05/05 05:46:48;;;;;;;5.13;4.72;;;;;;;30.01;39.32;99923.38;5010159;28;20213;-58
2022/05/05 05:49:15;;;;;;;5.88;5.38;;;;;;;29.80;39.36;99915.69;5010091;28;20586;-55
2022/05/05 05:51:42;;;;;;;5.53;5.22;;;;;;;29.83;39.43;99923.41;5010002;28;20589;-58
2022/05/05 05:54:10;;;;;;;7.97;5.60;;;;;;;29.55;40.08;99934.25;5010060;28;20198;-58
2022/05/05 05:56:38;;;;;;;13.00;7.22;;;;;;;29.77;39.67;99934.75;5010176;28;20205;-58
2022/05/05 05:59:05;;;;;;;6.28;5.78;;;;;;;29.73;40.09;99930.69;5009908;28;20221;-58
2022/05/05 06:04:16;;;;;;;8.82;5.70;;;;;;;30.17;39.14;99929.66;5009847;28;20196;-58
2022/05/05 06:06:43;;;;;;;5.30;4.93;;;;;;;29.79;39.40;99930.09;5009834;28;20212;-58
2022/05/05 06:09:11;;;;;;;4.13;3.90;;;;;;;30.01;38.87;99936.78;5009719;28;20198;-59
2022/05/05 06:11:38;;;;;;;6.18;4.80;;;;;;;30.44;38.06;99941.19;5009894;28;20204;-54
2022/05/05 06:14:05;;;;;;;4.93;4.53;;;;;;;30.82;37.28;99937.97;5009802;28;20289;-54
2022/05/05 06:16:32;;;;;;;4.55;4.25;;;;;;;30.91;37.14;99949.56;5009624;28;20204;-54
2022/05/05 06:18:59;;;;;;;5.70;5.30;;;;;;;30.84;37.64;99944.00;5009339;28;20217;-55
2022/05/05 06:21:26;;;;;;;5.47;4.75;;;;;;;30.79;37.79;99940.16;5010101;28;20216;-54
2022/05/05 06:23:53;;;;;;;4.90;4.60;;;;;;;30.16;38.84;99925.31;5009514;28;20205;-54
2022/05/05 06:26:23;;;;;;;5.07;4.57;;;;;;;29.89;39.42;99936.16;5009494;28;20258;-54
2022/05/05 06:28:50;;;;;;;4.85;4.55;;;;;;;30.26;39.11;99934.03;5010261;28;20248;-55
2022/05/05 06:31:17;;;;;;;5.25;4.75;;;;;;;30.08;39.51;99935.97;5009411;28;20206;-55
2022/05/05 06:33:46;;;;;;;5.28;4.88;;;;;;;30.24;39.35;99929.88;5009424;28;20222;-55
2022/05/05 06:36:13;;;;;;;5.85;5.10;;;;;;;29.56;41.13;99930.59;5013978;28;20200;-54
2022/05/05 06:38:40;;;;;;;8.85;5.20;;;;;;;29.15;41.92;99907.13;5016295;28;20236;-54
2022/05/05 06:41:08;;;;;;;5.20;4.70;;;;;;;28.84;42.68;99928.03;5013916;28;20190;-54
2022/05/05 06:43:36;;;;;;;4.90;4.50;;;;;;;28.70;42.80;99932.03;5011674;28;20205;-55
2022/05/05 06:46:03;;;;;;;7.65;4.78;;;;;;;28.69;42.99;99927.66;5009118;28;20230;-54
2022/05/05 06:48:31;;;;;;;5.65;4.70;;;;;;;28.86;42.35;99931.41;5011488;28;20280;-54
2022/05/05 06:50:58;;;;;;;8.40;5.20;;;;;;;28.89;42.86;99936.47;5018371;28;20201;-54
2022/05/05 06:53:25;;;;;;;6.13;5.03;;;;;;;28.66;43.20;99925.31;5011454;28;20723;-54
2022/05/05 06:55:55;;;;;;;5.28;4.80;;;;;;;28.84;41.88;99923.53;5008971;28;20293;-55
2022/05/05 06:58:22;;;;;;;5.53;4.80;;;;;;;28.88;42.24;99921.41;5008882;28;20198;-55
2022/05/05 07:03:35;;;;;;;6.78;4.97;;;;;;;29.06;42.90;99921.41;5009102;28;20201;-55
2022/05/05 07:06:01;;;;;;;9.25;4.75;;;;;;;29.37;41.00;99921.84;5015618;28;20208;-53
2022/05/05 07:10:52;;;;;;;4.95;4.60;;;;;;;29.35;41.24;99923.84;5027537;28;20205;-54
2022/05/05 07:11:14;;;;;;;5.80;4.93;;;;;;;29.52;40.94;99928.38;5028476;28;20671;-54
2022/05/05 07:13:41;;;;;;;5.00;4.47;;;;;;;29.83;39.76;99931.44;5014948;28;20586;-54
2022/05/05 07:16:10;;;;;;;4.95;3.75;;;;;;;29.61;39.81;99930.09;5008999;28;20281;-54
2022/05/05 07:18:36;;;;;;;4.50;4.20;;;;;;;29.98;39.84;99929.91;5008855;28;20703;-57
2022/05/05 07:21:04;;;;;;;5.38;3.70;;;;;;;30.30;39.45;99924.72;5008671;28;20289;-57
2022/05/05 07:23:31;;;;;;;5.53;3.80;;;;;;;31.10;38.31;99935.06;5007943;28;20198;-57
2022/05/05 07:25:58;;;;;;;3.88;3.67;;;;;;;31.59;36.85;99931.38;5008399;28;20240;-56
2022/05/05 07:28:25;;;;;;;5.32;4.30;;;;;;;31.77;36.19;99914.28;5008631;28;20208;-56
2022/05/05 07:30:53;;;;;;;4.10;3.70;;;;;;;31.42;36.39;99929.72;5008528;28;20194;-58
2022/05/05 07:33:22;;;;;;;4.00;3.65;;;;;;;31.19;37.23;99940.25;5008535;28;20201;-57
2022/05/05 07:35:49;;;;;;;4.35;4.00;;;;;;;31.54;36.46;99933.72;5019330;28;20738;-58
2022/05/05 07:38:16;;;;;;;5.45;5.05;;;;;;;32.18;35.98;99928.47;5028394;28;20201;-57
2022/05/05 07:40:43;;;;;;;4.50;4.00;;;;;;;32.46;35.13;99938.59;5028617;28;20627;-57
2022/05/05 07:43:10;;;;;;;5.43;4.50;;;;;;;31.74;36.12;99940.44;5028191;28;20731;-57
2022/05/05 07:45:37;;;;;;;4.20;3.90;;;;;;;31.17;36.33;99933.38;5028021;28;20204;-57
2022/05/05 07:48:04;;;;;;;3.90;3.50;;;;;;;31.49;35.91;99917.28;5027933;28;20201;-58
2022/05/05 07:50:33;;;;;;;4.25;4.05;;;;;;;32.03;34.66;99934.53;5028324;28;20215;-58
2022/05/05 07:53:00;;;;;;;4.32;3.85;;;;;;;32.37;34.28;99942.34;5027886;28;20198;-58
2022/05/05 07:55:27;;;;;;;5.88;3.95;;;;;;;32.60;33.43;99930.81;5028029;28;20670;-57
2022/05/05 07:57:54;;;;;;;3.72;3.50;;;;;;;33.24;32.35;99940.41;5027777;28;20240;-57
2022/05/05 08:00:22;;;;;;;5.03;3.50;;;;;;;33.14;31.79;99939.78;5027781;28;20278;-58
2022/05/05 08:02:49;;;;;;;4.70;4.22;;;;;;;32.96;31.78;99923.91;5027591;28;20660;-58
2022/05/05 08:05:15;;;;;;;4.20;3.63;;;;;;;33.21;32.08;99934.50;5028086;28;20208;-55
2022/05/05 08:07:47;;;;;;;5.18;3.70;;;;;;;33.08;31.48;99921.63;5027796;28;20293;-54
2022/05/05 08:10:14;;;;;;;4.93;3.10;;;;;;;33.50;30.60;99937.34;5027721;28;20201;-58
2022/05/05 08:12:41;;;;;;;3.45;3.15;;;;;;;33.23;30.88;99935.16;5027456;28;20198;-57
2022/05/05 08:15:10;;;;;;;4.88;3.47;;;;;;;32.15;32.18;99940.38;5027567;28;20235;-58
2022/05/05 08:17:37;;;;;;;3.95;3.42;;;;;;;31.66;33.18;99936.94;5027532;28;20203;-58
2022/05/05 08:20:05;;;;;;;4.47;3.70;;;;;;;31.70;32.53;99928.38;5027314;28;20229;-53
2022/05/05 08:22:33;;;;;;;3.38;3.15;;;;;;;31.56;33.41;99937.09;5027811;28;20223;-57
2022/05/05 08:30:30;;;;;;;3.67;3.38;;;;;;;31.01;33.57;99943.06;5027305;28;20247;-57
2022/05/05 08:32:57;;;;;;;7.95;3.90;;;;;;;30.66;34.20;99945.97;5027362;28;20280;-58
2022/05/05 08:35:27;;;;;;;4.38;3.30;;;;;;;30.21;34.87;99943.56;5026300;28;20446;-57
2022/05/05 08:37:54;;;;;;;3.58;3.22;;;;;;;30.05;36.38;99936.28;5027130;28;20259;-54
2022/05/05 08:40:25;;;;;;;4.47;3.50;;;;;;;29.31;37.55;99934.03;5022309;28;20238;-57
2022/05/05 08:42:52;;;;;;;3.83;3.47;;;;;;;29.05;39.05;99925.06;5007191;28;20272;-56
2022/05/05 08:45:19;;;;;;;4.55;3.28;;;;;;;29.13;39.71;99933.16;5025944;28;20215;-56
2022/05/05 08:47:47;;;;;;;5.00;4.00;;;;;;;29.12;39.75;99929.66;5027490;28;20597;-54
2022/05/05 08:50:15;;;;;;;4.43;3.20;;;;;;;28.74;39.35;99925.41;5026952;28;20201;-53
2022/05/05 08:52:48;;;;;;;4.38;3.30;;;;;;;28.63;38.78;99922.09;5027033;28;20200;-52
2022/05/05 08:55:16;;;;;;;4.68;3.30;;;;;;;28.92;41.95;99916.59;5027211;28;20300;-53
2022/05/05 08:57:45;;;;;;;4.18;3.28;;;;;;;28.46;40.26;99910.38;5027121;28;20193;-54
2022/05/05 09:00:14;;;;;;;6.97;3.33;;;;;;;27.93;38.57;99920.81;5026810;28;20221;-54
2022/05/05 09:02:42;;;;;;;3.20;2.90;;;;;;;27.60;39.33;99930.16;5026966;28;20217;-53
2022/05/05 09:05:10;;;;;;;3.13;2.80;;;;;;;27.90;39.02;99926.44;5026951;28;20205;-54
2022/05/05 09:07:49;;;;;;;3.15;2.95;;;;;;;28.01;39.72;99919.09;5024886;28;20747;-54
2022/05/05 09:10:17;;;;;;;3.15;2.90;;;;;;;28.08;39.19;99917.56;5019915;28;20679;-54
2022/05/05 09:12:57;;;;;;;4.25;3.70;;;;;;;28.24;37.42;99906.25;5007015;28;20194;-58
2022/05/05 09:15:32;;;;;;;3.38;3.17;;;;;;;28.10;36.62;99918.22;5007143;28;20194;-58
2022/05/05 09:18:14;;;;;;;7.03;3.53;;;;;;;27.95;38.70;99919.69;5006847;28;20391;-58
2022/05/05 09:20:42;;;;;;;3.10;2.80;;;;;;;28.04;36.57;99913.50;5008266;28;20614;-57
2022/05/05 09:23:09;;;;;;;4.00;3.53;;;;;;;28.23;36.47;99920.59;5006916;28;20598;-57
2022/05/05 09:25:54;;;;;;;8.88;3.28;;;;;;;28.41;35.95;99918.84;5006824;28;20261;-57
2022/05/05 09:28:23;;;;;;;3.60;3.28;;;;;;;28.58;35.81;99897.66;5006992;28;20285;-58
2022/05/05 09:30:52;;;;;;;3.80;3.42;;;;;;;28.98;36.22;99918.66;5007046;28;20290;-54
2022/05/05 09:33:37;;;;;;;4.32;3.30;;;;;;;28.88;36.29;99913.41;5007128;28;20202;-55
2022/05/05 09:36:06;;;;;;;6.05;4.20;;;;;;;28.56;35.20;99913.81;5006703;28;20197;-54
2022/05/05 09:38:51;;;;;;;3.20;3.10;;;;;;;28.64;34.69;99913.09;5023743;28;20208;-53
2022/05/05 09:41:18;;;;;;;3.25;2.72;;;;;;;28.69;35.82;99908.13;5026281;28;20198;-53
2022/05/05 09:43:47;;;;;;;2.90;2.70;;;;;;;28.52;34.40;99910.63;5023429;28;20280;-57
2022/05/05 09:46:32;;;;;;;3.05;2.83;;;;;;;28.53;34.13;99909.66;5018623;28;20255;-57
2022/05/05 09:49:09;;;;;;;3.60;2.83;;;;;;;28.54;34.58;99908.66;5020321;28;20642;-57
2022/05/05 09:51:38;;;;;;;4.40;3.13;;;;;;;28.59;34.40;99907.34;5019628;28;20194;-57
2022/05/05 09:59:42;;;;;;;3.50;3.20;;;;;;;27.47;33.88;99895.78;5029572;28;20220;-57
2022/05/05 10:02:17;;;;;;;6.00;3.30;;;;;;;27.29;35.23;99909.00;5029760;28;20256;-56
2022/05/05 10:04:50;;;;;;;4.20;2.90;;;;;;;27.63;34.85;99897.88;5029529;28;20218;-56
2022/05/05 10:07:20;;;;;;;3.83;3.03;;;;;;;27.59;34.81;99896.47;5029588;28;20747;-57
2022/05/05 10:09:49;;;;;;;4.38;3.42;;;;;;;27.40;36.17;99887.50;5026306;28;20193;-57
2022/05/05 10:12:18;;;;;;;3.42;3.05;;;;;;;27.57;35.96;99883.28;5026432;28;20678;-53
2022/05/05 10:14:48;;;;;;;2.90;2.78;;;;;;;27.73;35.95;99882.69;5021668;28;20597;-54
2022/05/05 10:17:15;;;;;;;3.40;3.10;;;;;;;27.54;35.92;99882.72;5020494;28;20283;-54
2022/05/05 10:19:44;;;;;;;5.63;3.35;;;;;;;27.08;36.17;99877.16;5016871;28;20217;-53
2022/05/05 10:22:16;;;;;;;4.60;3.53;;;;;;;26.57;37.72;99873.84;5009374;28;20198;-54
2022/05/05 10:24:53;;;;;;;5.82;3.50;;;;;;;26.28;38.45;99874.63;5012135;28;20194;-53
2022/05/05 10:27:20;;;;;;;4.60;3.00;;;;;;;25.78;39.57;99875.47;5023657;28;20604;-53
2022/05/05 10:29:49;;;;;;;3.22;3.03;;;;;;;25.24;40.30;99869.38;5029271;28;20755;-52
2022/05/05 10:32:19;;;;;;;3.33;2.97;;;;;;;25.08;41.21;99863.66;5023010;28;20197;-54
2022/05/05 10:34:47;;;;;;;3.25;3.05;;;;;;;25.12;40.86;99859.78;5018555;28;20226;-53
2022/05/05 10:37:16;;;;;;;3.78;3.20;;;;;;;25.22;40.98;99868.66;5017737;28;20219;-53
2022/05/05 10:39:47;;;;;;;4.65;3.15;;;;;;;25.10;41.69;99867.03;5018098;28;20222;-53
2022/05/05 10:42:23;;;;;;;4.18;3.22;;;;;;;25.03;42.08;99855.25;5017941;28;20221;-54
2022/05/05 10:45:12;;;;;;;7.07;3.65;;;;;;;25.06;42.78;99859.44;5018863;28;20198;-53
2022/05/05 10:48:16;;;;;;;3.90;3.50;;;;;;;24.55;42.93;99855.63;5019273;28;20233;-53
2022/05/05 10:50:52;;;;;;;4.03;3.67;;;;;;;24.37;43.21;99857.13;5015094;28;20189;-53
2022/05/05 10:53:28;;;;;;;3.10;2.90;;;;;;;24.38;44.41;99847.34;5014234;28;20266;-54
2022/05/05 10:55:55;;;;;;;5.10;3.05;;;;;;;24.40;44.11;99862.16;5009103;28;20301;-54
2022/05/05 10:58:59;;;;;;;4.40;2.97;;;;;;;24.42;43.67;99854.91;5008283;28;20227;-53
2022/05/05 11:01:29;;;;;;;5.57;3.67;;;;;;;24.40;44.07;99862.16;5009186;28;20226;-58
2022/05/05 11:04:06;;;;;;;3.35;3.10;;;;;;;24.38;43.41;99864.09;5009022;28;20197;-57
2022/05/05 11:06:35;;;;;;;8.82;3.35;;;;;;;24.35;42.94;99872.31;5008967;28;20212;-57
2022/05/05 11:09:02;;;;;;;3.03;2.92;;;;;;;24.27;44.82;99873.91;5008676;28;20233;-58
2022/05/05 11:11:41;;;;;;;3.63;3.33;;;;;;;24.27;43.70;99866.75;5009039;28;20195;-57
2022/05/05 11:22:59;;;;;;;3.42;3.22;;;;;;;24.41;42.42;99874.47;5008641;28;20258;-58
2022/05/05 11:25:26;;;;;;;4.18;3.88;;;;;;;24.43;42.56;99871.69;5008613;28;20229;-57
2022/05/05 11:27:57;;;;;;;3.55;3.25;;;;;;;24.56;43.11;99867.09;5008506;28;20195;-57
2022/05/05 11:30:24;;;;;;;3.80;3.60;;;;;;;24.41;42.52;99882.41;5008791;28;20788;-57
2022/05/05 11:32:52;;;;;;;4.18;3.03;;;;;;;24.34;42.44;99857.34;5008608;28;20284;-58
2022/05/05 11:35:21;;;;;;;3.70;3.40;;;;;;;24.40;42.91;99870.13;5008344;28;20288;-57
2022/05/05 11:37:48;;;;;;;4.15;3.20;;;;;;;24.40;42.74;99862.16;5008449;28;20206;-56
2022/05/05 11:40:15;;;;;;;3.88;3.00;;;;;;;24.58;41.59;99873.13;5008500;28;20222;-54
2022/05/05 11:45:27;;;;;;;3.10;2.92;;;;;;;24.50;40.15;99883.47;5017402;28;20285;-58
2022/05/05 11:47:55;;;;;;;3.20;2.88;;;;;;;24.65;39.10;99882.25;5024903;28;20736;-55
2022/05/05 11:50:22;;;;;;;3.40;3.10;;;;;;;24.77;39.53;99875.09;5028166;28;20280;-57
2022/05/05 11:52:49;;;;;;;4.95;2.85;;;;;;;24.84;39.50;99879.78;5027840;28;20197;-56
2022/05/05 11:55:20;;;;;;;3.92;3.13;;;;;;;24.98;38.95;99872.53;5019122;28;20727;-57
2022/05/05 11:57:49;;;;;;;3.15;2.90;;;;;;;25.09;39.33;99883.94;5018257;28;20189;-57
2022/05/05 12:03:05;;;;;;;3.10;2.97;;;;;;;25.25;38.92;99871.06;5017251;28;20202;-55
2022/05/05 12:05:33;;;;;;;3.28;3.08;;;;;;;25.21;39.18;99874.09;5016599;28;20198;-52
2022/05/05 12:08:00;;;;;;;3.20;2.95;;;;;;;25.03;39.31;99873.84;5017711;28;20193;-53
2022/05/05 12:10:36;;;;;;;3.63;3.42;;;;;;;25.13;40.00;99866.78;5018617;28;20202;-55
2022/05/05 12:13:03;;;;;;;4.78;3.30;;;;;;;25.22;39.70;99870.47;5007753;28;20206;-54
2022/05/05 12:15:30;;;;;;;3.92;3.25;;;;;;;25.02;40.84;99871.31;5008984;28;20589;-57
2022/05/05 12:17:59;;;;;;;4.47;3.17;;;;;;;24.99;40.92;99874.22;5024126;28;20198;-57
2022/05/05 12:20:30;;;;;;;3.25;3.05;;;;;;;24.73;41.12;99871.84;5007789;28;20310;-57